sensor_id;sensor_type;location;lat;lon;timestamp;temperature;humidity
29363;DHT22;16349;53.672;10.014;2023-06-24T00:02:14;16.60;99.90
29363;DHT22;16349;53.672;10.014;2023-06-24T00:04:41;16.60;99.90
29363;DHT22;16349;53.672;10.014;2023-06-24T00:07:08;16.60;99.90
29363;DHT22;16349;53.672;10.014;2023-06-24T00:09:35;16.60;99.90
29363;DHT22;16349;53.672;10.014;2023-06-24T00:12:05;16.60;99.90
29363;DHT22;16349;53.672;10.014;2023-06-24T00:14:32;16.60;99.90
29363;DHT22;16349;53.672;10.014;2023-06-24T00:16:59;16.60;99.90
29363;DHT22;16349;53.672;10.014;2023-06-24T00:19:26;16.50;99.90
29363;DHT22;16349;53.672;10.014;2023-06-24T00:21:53;16.50;99.90
29363;DHT22;16349;53.672;10.014;2023-06-24T00:24:21;16.50;99.90
29363;DHT22;16349;53.672;10.014;2023-06-24T00:26:51;16.40;99.90
29363;DHT22;16349;53.672;10.014;2023-06-24T00:29:19;16.40;99.90
29363;DHT22;16349;53.672;10.014;2023-06-24T00:31:47;16.40;99.90
29363;DHT22;16349;53.672;10.014;2023-06-24T00:34:14;16.40;99.90
29363;DHT22;16349;53.672;10.014;2023-06-24T00:36:41;16.40;99.90
29363;DHT22;16349;53.672;10.014;2023-06-24T00:39:09;16.30;99.90
29363;DHT22;16349;53.672;10.014;2023-06-24T00:41:36;16.30;99.90
29363;DHT22;16349;53.672;10.014;2023-06-24T00:44:03;16.30;99.90
29363;DHT22;16349;53.672;10.014;2023-06-24T00:46:32;16.30;99.90
29363;DHT22;16349;53.672;10.014;2023-06-24T00:48:59;16.20;99.90
29363;DHT22;16349;53.672;10.014;2023-06-24T00:51:29;16.20;99.90
29363;DHT22;16349;53.672;10.014;2023-06-24T00:53:56;16.20;99.90
29363;DHT22;16349;53.672;10.014;2023-06-24T00:56:29;16.20;99.90
29363;DHT22;16349;53.672;10.014;2023-06-24T00:58:57;16.10;99.90
29363;DHT22;16349;53.672;10.014;2023-06-24T01:01:26;16.10;99.90
29363;DHT22;16349;53.672;10.014;2023-06-24T01:03:55;16.10;99.90
29363;DHT22;16349;53.672;10.014;2023-06-24T01:06:22;16.10;99.90
29363;DHT22;16349;53.672;10.014;2023-06-24T01:08:49;16.00;99.90
29363;DHT22;16349;53.672;10.014;2023-06-24T01:11:16;16.00;99.90
29363;DHT22;16349;53.672;10.014;2023-06-24T01:13:43;16.00;99.90
29363;DHT22;16349;53.672;10.014;2023-06-24T01:16:13;16.00;99.90
29363;DHT22;16349;53.672;10.014;2023-06-24T01:18:47;16.00;99.90
29363;DHT22;16349;53.672;10.014;2023-06-24T01:21:24;16.00;99.90
29363;DHT22;16349;53.672;10.014;2023-06-24T01:24:37;16.00;99.90
29363;DHT22;16349;53.672;10.014;2023-06-24T01:27:24;15.90;99.90
29363;DHT22;16349;53.672;10.014;2023-06-24T01:32:57;15.90;99.90
29363;DHT22;16349;53.672;10.014;2023-06-24T01:35:30;15.80;99.90
29363;DHT22;16349;53.672;10.014;2023-06-24T01:38:01;15.70;99.90
29363;DHT22;16349;53.672;10.014;2023-06-24T01:40:30;15.70;99.90
29363;DHT22;16349;53.672;10.014;2023-06-24T01:42:59;15.70;99.90
29363;DHT22;16349;53.672;10.014;2023-06-24T01:45:29;15.70;99.90
29363;DHT22;16349;53.672;10.014;2023-06-24T01:48:00;15.60;99.90
29363;DHT22;16349;53.672;10.014;2023-06-24T01:50:31;15.60;99.90
29363;DHT22;16349;53.672;10.014;2023-06-24T01:53:01;15.60;99.90
29363;DHT22;16349;53.672;10.014;2023-06-24T01:55:29;15.50;99.90
29363;DHT22;16349;53.672;10.014;2023-06-24T01:57:59;15.50;99.90
29363;DHT22;16349;53.672;10.014;2023-06-24T02:00:28;15.50;99.90
29363;DHT22;16349;53.672;10.014;2023-06-24T02:02:56;15.50;99.90
29363;DHT22;16349;53.672;10.014;2023-06-24T02:05:25;15.50;99.90
29363;DHT22;16349;53.672;10.014;2023-06-24T02:07:53;15.40;99.90
29363;DHT22;16349;53.672;10.014;2023-06-24T02:10:21;15.30;99.90
29363;DHT22;16349;53.672;10.014;2023-06-24T02:12:50;15.20;99.90
29363;DHT22;16349;53.672;10.014;2023-06-24T02:15:19;15.20;99.90
29363;DHT22;16349;53.672;10.014;2023-06-24T02:17:49;15.20;99.90
29363;DHT22;16349;53.672;10.014;2023-06-24T02:20:17;15.20;99.90
29363;DHT22;16349;53.672;10.014;2023-06-24T02:22:48;15.10;99.90
29363;DHT22;16349;53.672;10.014;2023-06-24T02:25:16;15.10;99.90
29363;DHT22;16349;53.672;10.014;2023-06-24T02:27:43;15.00;99.90
29363;DHT22;16349;53.672;10.014;2023-06-24T02:30:13;15.00;99.90
29363;DHT22;16349;53.672;10.014;2023-06-24T02:32:41;14.90;99.90
29363;DHT22;16349;53.672;10.014;2023-06-24T02:35:08;14.80;99.90
29363;DHT22;16349;53.672;10.014;2023-06-24T02:37:35;14.80;99.90
29363;DHT22;16349;53.672;10.014;2023-06-24T02:40:05;14.80;99.90
29363;DHT22;16349;53.672;10.014;2023-06-24T02:42:32;14.70;99.90
29363;DHT22;16349;53.672;10.014;2023-06-24T02:44:59;14.70;99.90
29363;DHT22;16349;53.672;10.014;2023-06-24T02:47:27;14.70;99.90
29363;DHT22;16349;53.672;10.014;2023-06-24T02:49:56;14.70;99.90
29363;DHT22;16349;53.672;10.014;2023-06-24T02:52:24;14.60;99.90
29363;DHT22;16349;53.672;10.014;2023-06-24T02:54:54;14.70;99.90
29363;DHT22;16349;53.672;10.014;2023-06-24T02:57:43;14.60;99.90
29363;DHT22;16349;53.672;10.014;2023-06-24T03:00:43;14.60;99.90
29363;DHT22;16349;53.672;10.014;2023-06-24T03:03:10;14.50;99.90
29363;DHT22;16349;53.672;10.014;2023-06-24T03:05:44;14.50;99.90
29363;DHT22;16349;53.672;10.014;2023-06-24T03:08:14;14.50;99.90
29363;DHT22;16349;53.672;10.014;2023-06-24T03:10:42;14.50;99.90
29363;DHT22;16349;53.672;10.014;2023-06-24T03:13:17;14.40;99.90
29363;DHT22;16349;53.672;10.014;2023-06-24T03:15:50;14.40;99.90
29363;DHT22;16349;53.672;10.014;2023-06-24T03:18:17;14.40;99.90
29363;DHT22;16349;53.672;10.014;2023-06-24T03:20:46;14.40;99.90
29363;DHT22;16349;53.672;10.014;2023-06-24T03:23:17;14.30;99.90
29363;DHT22;16349;53.672;10.014;2023-06-24T03:25:44;14.30;99.90
29363;DHT22;16349;53.672;10.014;2023-06-24T03:28:10;14.30;99.90
29363;DHT22;16349;53.672;10.014;2023-06-24T03:30:45;14.30;99.90
29363;DHT22;16349;53.672;10.014;2023-06-24T03:33:16;14.30;99.90
29363;DHT22;16349;53.672;10.014;2023-06-24T03:35:44;14.20;99.90
29363;DHT22;16349;53.672;10.014;2023-06-24T03:38:14;14.20;99.90
29363;DHT22;16349;53.672;10.014;2023-06-24T03:40:42;14.20;99.90
29363;DHT22;16349;53.672;10.014;2023-06-24T03:43:09;14.20;99.90
29363;DHT22;16349;53.672;10.014;2023-06-24T03:45:36;14.30;99.90
29363;DHT22;16349;53.672;10.014;2023-06-24T03:48:05;14.20;99.90
29363;DHT22;16349;53.672;10.014;2023-06-24T03:50:32;14.20;99.90
29363;DHT22;16349;53.672;10.014;2023-06-24T03:52:59;14.20;99.90
29363;DHT22;16349;53.672;10.014;2023-06-24T03:55:27;14.30;99.90
29363;DHT22;16349;53.672;10.014;2023-06-24T03:57:54;14.30;99.90
29363;DHT22;16349;53.672;10.014;2023-06-24T04:00:21;14.30;99.90
29363;DHT22;16349;53.672;10.014;2023-06-24T04:02:48;14.30;99.90
29363;DHT22;16349;53.672;10.014;2023-06-24T04:05:17;14.30;99.90
29363;DHT22;16349;53.672;10.014;2023-06-24T04:07:43;14.40;99.90
29363;DHT22;16349;53.672;10.014;2023-06-24T04:10:13;14.40;99.90
29363;DHT22;16349;53.672;10.014;2023-06-24T04:12:40;14.50;99.90
29363;DHT22;16349;53.672;10.014;2023-06-24T04:15:08;14.50;99.90
29363;DHT22;16349;53.672;10.014;2023-06-24T04:17:35;14.60;99.90
29363;DHT22;16349;53.672;10.014;2023-06-24T04:20:02;14.70;99.90
29363;DHT22;16349;53.672;10.014;2023-06-24T04:22:36;14.80;99.90
29363;DHT22;16349;53.672;10.014;2023-06-24T04:25:04;14.80;99.90
29363;DHT22;16349;53.672;10.014;2023-06-24T04:27:31;14.80;99.90
29363;DHT22;16349;53.672;10.014;2023-06-24T04:29:58;14.90;99.90
29363;DHT22;16349;53.672;10.014;2023-06-24T04:32:25;14.90;99.90
29363;DHT22;16349;53.672;10.014;2023-06-24T04:34:52;15.00;99.90
29363;DHT22;16349;53.672;10.014;2023-06-24T04:37:19;15.00;99.90
29363;DHT22;16349;53.672;10.014;2023-06-24T04:39:49;15.10;99.90
29363;DHT22;16349;53.672;10.014;2023-06-24T04:42:16;15.10;99.90
29363;DHT22;16349;53.672;10.014;2023-06-24T04:44:43;15.10;99.90
29363;DHT22;16349;53.672;10.014;2023-06-24T04:47:10;15.20;99.90
29363;DHT22;16349;53.672;10.014;2023-06-24T04:49:39;15.20;99.90
29363;DHT22;16349;53.672;10.014;2023-06-24T04:52:06;15.20;99.90
29363;DHT22;16349;53.672;10.014;2023-06-24T04:54:33;15.20;99.90
29363;DHT22;16349;53.672;10.014;2023-06-24T04:57:02;15.30;99.90
29363;DHT22;16349;53.672;10.014;2023-06-24T04:59:28;15.30;99.90
29363;DHT22;16349;53.672;10.014;2023-06-24T05:01:55;15.40;99.90
29363;DHT22;16349;53.672;10.014;2023-06-24T05:04:22;15.40;99.90
29363;DHT22;16349;53.672;10.014;2023-06-24T05:06:49;15.50;99.90
29363;DHT22;16349;53.672;10.014;2023-06-24T05:09:16;15.50;99.90
29363;DHT22;16349;53.672;10.014;2023-06-24T05:11:42;15.60;99.90
29363;DHT22;16349;53.672;10.014;2023-06-24T05:14:11;15.60;99.90
29363;DHT22;16349;53.672;10.014;2023-06-24T05:16:37;15.70;99.90
29363;DHT22;16349;53.672;10.014;2023-06-24T05:19:04;15.80;99.90
29363;DHT22;16349;53.672;10.014;2023-06-24T05:21:31;15.80;99.90
29363;DHT22;16349;53.672;10.014;2023-06-24T05:23:58;15.80;99.90
29363;DHT22;16349;53.672;10.014;2023-06-24T05:26:25;15.90;99.90
29363;DHT22;16349;53.672;10.014;2023-06-24T05:28:52;15.90;99.90
29363;DHT22;16349;53.672;10.014;2023-06-24T05:31:20;16.00;99.90
29363;DHT22;16349;53.672;10.014;2023-06-24T05:33:47;16.10;99.90
29363;DHT22;16349;53.672;10.014;2023-06-24T05:36:14;16.20;99.90
29363;DHT22;16349;53.672;10.014;2023-06-24T05:38:40;16.20;99.90
29363;DHT22;16349;53.672;10.014;2023-06-24T05:41:07;16.20;99.90
29363;DHT22;16349;53.672;10.014;2023-06-24T05:43:34;16.30;99.90
29363;DHT22;16349;53.672;10.014;2023-06-24T05:46:01;16.30;99.90
29363;DHT22;16349;53.672;10.014;2023-06-24T05:48:29;16.40;99.90
29363;DHT22;16349;53.672;10.014;2023-06-24T05:50:56;16.40;99.90
29363;DHT22;16349;53.672;10.014;2023-06-24T05:53:22;16.50;99.90
29363;DHT22;16349;53.672;10.014;2023-06-24T05:55:50;16.50;99.90
29363;DHT22;16349;53.672;10.014;2023-06-24T05:58:17;16.60;99.90
29363;DHT22;16349;53.672;10.014;2023-06-24T06:00:43;16.60;99.90
29363;DHT22;16349;53.672;10.014;2023-06-24T06:03:10;16.70;99.90
29363;DHT22;16349;53.672;10.014;2023-06-24T06:05:38;16.80;99.90
29363;DHT22;16349;53.672;10.014;2023-06-24T06:08:05;16.80;99.90
29363;DHT22;16349;53.672;10.014;2023-06-24T06:10:32;16.90;99.90
29363;DHT22;16349;53.672;10.014;2023-06-24T06:12:59;17.00;99.90
29363;DHT22;16349;53.672;10.014;2023-06-24T06:15:25;17.00;99.90
29363;DHT22;16349;53.672;10.014;2023-06-24T06:17:53;17.10;99.90
29363;DHT22;16349;53.672;10.014;2023-06-24T06:20:19;17.10;99.90
29363;DHT22;16349;53.672;10.014;2023-06-24T06:22:47;17.10;99.90
29363;DHT22;16349;53.672;10.014;2023-06-24T06:25:16;17.20;99.90
29363;DHT22;16349;53.672;10.014;2023-06-24T06:27:43;17.20;99.90
29363;DHT22;16349;53.672;10.014;2023-06-24T06:30:11;17.30;99.90
29363;DHT22;16349;53.672;10.014;2023-06-24T06:32:38;17.30;99.90
29363;DHT22;16349;53.672;10.014;2023-06-24T06:35:06;17.40;99.90
29363;DHT22;16349;53.672;10.014;2023-06-24T06:37:33;17.40;99.90
29363;DHT22;16349;53.672;10.014;2023-06-24T06:40:01;17.40;99.90
29363;DHT22;16349;53.672;10.014;2023-06-24T06:42:29;17.50;99.90
29363;DHT22;16349;53.672;10.014;2023-06-24T06:44:55;17.50;99.90
29363;DHT22;16349;53.672;10.014;2023-06-24T06:47:22;17.60;99.90
29363;DHT22;16349;53.672;10.014;2023-06-24T06:49:49;17.60;99.90
29363;DHT22;16349;53.672;10.014;2023-06-24T06:52:16;17.70;99.90
29363;DHT22;16349;53.672;10.014;2023-06-24T06:54:43;17.80;99.90
29363;DHT22;16349;53.672;10.014;2023-06-24T06:57:11;17.90;99.90
29363;DHT22;16349;53.672;10.014;2023-06-24T06:59:38;17.90;99.90
29363;DHT22;16349;53.672;10.014;2023-06-24T07:02:06;17.90;99.90
29363;DHT22;16349;53.672;10.014;2023-06-24T07:04:32;17.90;99.90
29363;DHT22;16349;53.672;10.014;2023-06-24T07:06:59;17.90;99.90
29363;DHT22;16349;53.672;10.014;2023-06-24T07:09:26;18.00;99.90
29363;DHT22;16349;53.672;10.014;2023-06-24T07:11:53;18.00;99.90
29363;DHT22;16349;53.672;10.014;2023-06-24T07:14:21;18.00;99.90
29363;DHT22;16349;53.672;10.014;2023-06-24T07:16:48;18.10;99.90
29363;DHT22;16349;53.672;10.014;2023-06-24T07:19:14;18.20;99.90
29363;DHT22;16349;53.672;10.014;2023-06-24T07:21:41;18.20;99.90
29363;DHT22;16349;53.672;10.014;2023-06-24T07:24:08;18.30;99.90
29363;DHT22;16349;53.672;10.014;2023-06-24T07:26:35;18.40;99.90
29363;DHT22;16349;53.672;10.014;2023-06-24T07:29:06;18.40;99.90
29363;DHT22;16349;53.672;10.014;2023-06-24T07:31:35;18.50;99.90
29363;DHT22;16349;53.672;10.014;2023-06-24T07:34:02;18.40;99.90
29363;DHT22;16349;53.672;10.014;2023-06-24T07:36:29;18.50;99.90
29363;DHT22;16349;53.672;10.014;2023-06-24T07:38:56;18.50;99.90
29363;DHT22;16349;53.672;10.014;2023-06-24T07:41:22;18.60;99.90
29363;DHT22;16349;53.672;10.014;2023-06-24T07:43:49;18.70;99.90
29363;DHT22;16349;53.672;10.014;2023-06-24T07:46:16;18.70;99.90
29363;DHT22;16349;53.672;10.014;2023-06-24T07:48:45;18.70;99.90
29363;DHT22;16349;53.672;10.014;2023-06-24T07:51:11;18.70;99.90
29363;DHT22;16349;53.672;10.014;2023-06-24T07:53:38;18.90;99.90
29363;DHT22;16349;53.672;10.014;2023-06-24T07:56:05;18.90;99.90
29363;DHT22;16349;53.672;10.014;2023-06-24T07:58:33;19.00;99.90
29363;DHT22;16349;53.672;10.014;2023-06-24T08:01:00;19.00;99.90
29363;DHT22;16349;53.672;10.014;2023-06-24T08:03:27;19.10;99.90
29363;DHT22;16349;53.672;10.014;2023-06-24T08:05:55;19.20;99.90
29363;DHT22;16349;53.672;10.014;2023-06-24T08:08:22;19.30;99.90
29363;DHT22;16349;53.672;10.014;2023-06-24T08:10:49;19.30;99.90
29363;DHT22;16349;53.672;10.014;2023-06-24T08:13:16;19.40;99.90
29363;DHT22;16349;53.672;10.014;2023-06-24T08:15:43;19.50;99.90
29363;DHT22;16349;53.672;10.014;2023-06-24T08:18:10;19.60;99.90
29363;DHT22;16349;53.672;10.014;2023-06-24T08:20:37;19.60;99.90
29363;DHT22;16349;53.672;10.014;2023-06-24T08:23:05;19.70;99.90
29363;DHT22;16349;53.672;10.014;2023-06-24T08:31:39;19.90;99.90
29363;DHT22;16349;53.672;10.014;2023-06-24T08:34:06;19.90;99.90
29363;DHT22;16349;53.672;10.014;2023-06-24T08:36:33;20.00;99.90
29363;DHT22;16349;53.672;10.014;2023-06-24T08:39:01;20.10;99.90
29363;DHT22;16349;53.672;10.014;2023-06-24T08:41:28;20.20;99.90
29363;DHT22;16349;53.672;10.014;2023-06-24T08:43:55;20.40;99.90
29363;DHT22;16349;53.672;10.014;2023-06-24T08:46:24;20.50;99.90
29363;DHT22;16349;53.672;10.014;2023-06-24T08:48:59;20.70;99.90
29363;DHT22;16349;53.672;10.014;2023-06-24T08:51:28;20.50;99.90
29363;DHT22;16349;53.672;10.014;2023-06-24T08:53:57;20.60;99.90
29363;DHT22;16349;53.672;10.014;2023-06-24T08:56:26;20.70;99.90
29363;DHT22;16349;53.672;10.014;2023-06-24T08:58:53;20.90;99.90
29363;DHT22;16349;53.672;10.014;2023-06-24T09:01:20;21.00;99.90
29363;DHT22;16349;53.672;10.014;2023-06-24T09:03:47;20.90;99.90
29363;DHT22;16349;53.672;10.014;2023-06-24T09:06:14;20.90;99.90
29363;DHT22;16349;53.672;10.014;2023-06-24T09:08:41;20.90;99.90
29363;DHT22;16349;53.672;10.014;2023-06-24T09:11:22;21.00;99.90
29363;DHT22;16349;53.672;10.014;2023-06-24T09:13:55;21.10;99.90
29363;DHT22;16349;53.672;10.014;2023-06-24T09:16:23;21.10;99.90
29363;DHT22;16349;53.672;10.014;2023-06-24T09:21:22;21.30;99.90
29363;DHT22;16349;53.672;10.014;2023-06-24T09:23:54;21.20;99.90
29363;DHT22;16349;53.672;10.014;2023-06-24T09:26:23;21.20;99.90
29363;DHT22;16349;53.672;10.014;2023-06-24T09:28:49;21.20;99.90
29363;DHT22;16349;53.672;10.014;2023-06-24T09:31:18;21.30;99.90
29363;DHT22;16349;53.672;10.014;2023-06-24T09:33:45;21.40;99.90
29363;DHT22;16349;53.672;10.014;2023-06-24T09:36:12;21.50;99.90
29363;DHT22;16349;53.672;10.014;2023-06-24T09:38:42;21.60;99.90
29363;DHT22;16349;53.672;10.014;2023-06-24T09:41:10;21.50;99.90
29363;DHT22;16349;53.672;10.014;2023-06-24T09:43:37;21.50;99.90
29363;DHT22;16349;53.672;10.014;2023-06-24T09:46:06;21.60;99.90
29363;DHT22;16349;53.672;10.014;2023-06-24T09:48:35;21.50;99.90
29363;DHT22;16349;53.672;10.014;2023-06-24T09:51:03;21.60;99.90
29363;DHT22;16349;53.672;10.014;2023-06-24T09:53:31;21.70;99.90
29363;DHT22;16349;53.672;10.014;2023-06-24T09:55:59;21.70;99.90
29363;DHT22;16349;53.672;10.014;2023-06-24T09:58:28;21.70;99.90
29363;DHT22;16349;53.672;10.014;2023-06-24T10:00:58;21.80;99.90
29363;DHT22;16349;53.672;10.014;2023-06-24T10:03:27;21.90;99.90
29363;DHT22;16349;53.672;10.014;2023-06-24T10:05:57;21.90;99.90
29363;DHT22;16349;53.672;10.014;2023-06-24T10:08:25;21.90;99.90
29363;DHT22;16349;53.672;10.014;2023-06-24T10:10:52;22.00;99.90
29363;DHT22;16349;53.672;10.014;2023-06-24T10:13:19;22.00;99.90
29363;DHT22;16349;53.672;10.014;2023-06-24T10:15:46;22.00;99.90
29363;DHT22;16349;53.672;10.014;2023-06-24T10:18:32;22.00;99.90
29363;DHT22;16349;53.672;10.014;2023-06-24T10:21:01;22.10;99.90
29363;DHT22;16349;53.672;10.014;2023-06-24T10:23:33;22.20;99.90
29363;DHT22;16349;53.672;10.014;2023-06-24T10:26:00;22.30;99.90
29363;DHT22;16349;53.672;10.014;2023-06-24T10:28:30;22.30;99.90
29363;DHT22;16349;53.672;10.014;2023-06-24T10:31:17;22.40;99.90
29363;DHT22;16349;53.672;10.014;2023-06-24T10:33:52;22.60;99.90
29363;DHT22;16349;53.672;10.014;2023-06-24T10:36:32;22.60;99.90
29363;DHT22;16349;53.672;10.014;2023-06-24T10:38:59;22.60;99.90
29363;DHT22;16349;53.672;10.014;2023-06-24T10:41:26;22.60;99.90
29363;DHT22;16349;53.672;10.014;2023-06-24T10:43:56;22.80;99.90
29363;DHT22;16349;53.672;10.014;2023-06-24T10:46:26;22.90;99.90
29363;DHT22;16349;53.672;10.014;2023-06-24T10:48:53;22.90;99.90
29363;DHT22;16349;53.672;10.014;2023-06-24T10:51:20;22.90;99.90
29363;DHT22;16349;53.672;10.014;2023-06-24T10:53:48;22.80;99.90
29363;DHT22;16349;53.672;10.014;2023-06-24T10:56:16;22.90;99.90
29363;DHT22;16349;53.672;10.014;2023-06-24T10:58:55;22.90;99.90
29363;DHT22;16349;53.672;10.014;2023-06-24T11:01:21;22.90;99.90
29363;DHT22;16349;53.672;10.014;2023-06-24T11:03:48;23.10;99.90
29363;DHT22;16349;53.672;10.014;2023-06-24T11:06:15;23.10;99.90
29363;DHT22;16349;53.672;10.014;2023-06-24T11:08:45;23.10;99.90
29363;DHT22;16349;53.672;10.014;2023-06-24T11:11:19;23.40;99.90
29363;DHT22;16349;53.672;10.014;2023-06-24T11:13:48;23.50;99.90
29363;DHT22;16349;53.672;10.014;2023-06-24T11:16:20;23.50;99.90
29363;DHT22;16349;53.672;10.014;2023-06-24T11:18:47;23.60;99.90
29363;DHT22;16349;53.672;10.014;2023-06-24T11:21:14;23.40;99.90
29363;DHT22;16349;53.672;10.014;2023-06-24T11:23:41;23.40;99.90
29363;DHT22;16349;53.672;10.014;2023-06-24T11:26:08;23.40;99.90
29363;DHT22;16349;53.672;10.014;2023-06-24T11:28:37;23.50;99.90
29363;DHT22;16349;53.672;10.014;2023-06-24T11:31:06;23.60;99.90
29363;DHT22;16349;53.672;10.014;2023-06-24T11:33:34;23.50;99.90
29363;DHT22;16349;53.672;10.014;2023-06-24T11:36:00;23.50;99.90
29363;DHT22;16349;53.672;10.014;2023-06-24T11:38:28;23.70;99.90
29363;DHT22;16349;53.672;10.014;2023-06-24T11:40:57;23.90;99.90
29363;DHT22;16349;53.672;10.014;2023-06-24T11:43:25;24.00;99.60
29363;DHT22;16349;53.672;10.014;2023-06-24T11:45:54;23.90;99.90
29363;DHT22;16349;53.672;10.014;2023-06-24T11:48:21;24.10;99.40
29363;DHT22;16349;53.672;10.014;2023-06-24T11:50:53;24.10;99.60
29363;DHT22;16349;53.672;10.014;2023-06-24T11:53:28;24.10;99.70
29363;DHT22;16349;53.672;10.014;2023-06-24T11:55:56;24.30;99.70
29363;DHT22;16349;53.672;10.014;2023-06-24T11:58:23;24.40;99.60
29363;DHT22;16349;53.672;10.014;2023-06-24T12:00:50;24.40;99.80
29363;DHT22;16349;53.672;10.014;2023-06-24T12:03:22;24.50;99.00
29363;DHT22;16349;53.672;10.014;2023-06-24T12:05:50;24.50;99.00
29363;DHT22;16349;53.672;10.014;2023-06-24T12:08:17;24.50;99.20
29363;DHT22;16349;53.672;10.014;2023-06-24T12:10:45;24.50;99.50
29363;DHT22;16349;53.672;10.014;2023-06-24T12:13:12;24.70;99.90
29363;DHT22;16349;53.672;10.014;2023-06-24T12:15:41;25.00;98.50
29363;DHT22;16349;53.672;10.014;2023-06-24T12:18:08;25.00;98.80
29363;DHT22;16349;53.672;10.014;2023-06-24T12:20:36;25.00;98.50
29363;DHT22;16349;53.672;10.014;2023-06-24T12:23:03;25.00;98.30
29363;DHT22;16349;53.672;10.014;2023-06-24T12:25:30;25.10;98.20
29363;DHT22;16349;53.672;10.014;2023-06-24T12:27:56;24.80;98.20
29363;DHT22;16349;53.672;10.014;2023-06-24T12:30:25;24.70;98.70
29363;DHT22;16349;53.672;10.014;2023-06-24T12:32:52;24.80;99.00
29363;DHT22;16349;53.672;10.014;2023-06-24T12:35:19;24.80;99.10
29363;DHT22;16349;53.672;10.014;2023-06-24T12:37:47;24.90;98.80
29363;DHT22;16349;53.672;10.014;2023-06-24T12:40:14;25.10;99.80
29363;DHT22;16349;53.672;10.014;2023-06-24T12:42:41;25.30;98.80
29363;DHT22;16349;53.672;10.014;2023-06-24T12:45:08;25.50;97.60
29363;DHT22;16349;53.672;10.014;2023-06-24T12:47:36;25.60;97.20
29363;DHT22;16349;53.672;10.014;2023-06-24T12:50:04;25.60;97.00
29363;DHT22;16349;53.672;10.014;2023-06-24T12:52:32;25.80;97.10
29363;DHT22;16349;53.672;10.014;2023-06-24T12:55:00;26.10;96.80
29363;DHT22;16349;53.672;10.014;2023-06-24T12:57:29;26.20;96.10
29363;DHT22;16349;53.672;10.014;2023-06-24T12:59:56;26.20;96.00
29363;DHT22;16349;53.672;10.014;2023-06-24T13:02:23;26.10;96.20
29363;DHT22;16349;53.672;10.014;2023-06-24T13:04:49;26.30;95.40
29363;DHT22;16349;53.672;10.014;2023-06-24T13:07:16;26.70;95.40
29363;DHT22;16349;53.672;10.014;2023-06-24T13:09:43;27.10;95.40
29363;DHT22;16349;53.672;10.014;2023-06-24T13:12:11;27.50;94.20
29363;DHT22;16349;53.672;10.014;2023-06-24T13:14:38;27.60;92.90
29363;DHT22;16349;53.672;10.014;2023-06-24T13:17:05;27.20;92.90
29363;DHT22;16349;53.672;10.014;2023-06-24T13:19:32;26.90;93.00
29363;DHT22;16349;53.672;10.014;2023-06-24T13:21:59;26.80;93.50
29363;DHT22;16349;53.672;10.014;2023-06-24T13:24:26;26.60;92.90
29363;DHT22;16349;53.672;10.014;2023-06-24T13:26:53;26.60;94.50
29363;DHT22;16349;53.672;10.014;2023-06-24T13:29:21;27.20;93.70
29363;DHT22;16349;53.672;10.014;2023-06-24T13:31:48;27.50;92.30
29363;DHT22;16349;53.672;10.014;2023-06-24T13:34:15;27.60;92.30
29363;DHT22;16349;53.672;10.014;2023-06-24T13:36:42;28.10;91.60
29363;DHT22;16349;53.672;10.014;2023-06-24T13:39:09;28.50;90.50
29363;DHT22;16349;53.672;10.014;2023-06-24T13:41:38;29.10;90.20
29363;DHT22;16349;53.672;10.014;2023-06-24T13:44:05;29.20;86.60
29363;DHT22;16349;53.672;10.014;2023-06-24T13:46:34;28.70;86.40
29363;DHT22;16349;53.672;10.014;2023-06-24T13:49:01;28.30;88.20
29363;DHT22;16349;53.672;10.014;2023-06-24T13:51:27;28.00;88.40
29363;DHT22;16349;53.672;10.014;2023-06-24T13:53:55;27.70;88.30
29363;DHT22;16349;53.672;10.014;2023-06-24T13:56:23;27.50;89.60
29363;DHT22;16349;53.672;10.014;2023-06-24T13:58:51;27.50;90.00
29363;DHT22;16349;53.672;10.014;2023-06-24T14:01:18;28.00;89.70
29363;DHT22;16349;53.672;10.014;2023-06-24T14:03:47;27.90;88.30
29363;DHT22;16349;53.672;10.014;2023-06-24T14:06:17;27.70;89.00
29363;DHT22;16349;53.672;10.014;2023-06-24T14:08:44;27.70;90.10
29363;DHT22;16349;53.672;10.014;2023-06-24T14:11:12;27.60;88.70
29363;DHT22;16349;53.672;10.014;2023-06-24T14:13:40;27.90;86.90
29363;DHT22;16349;53.672;10.014;2023-06-24T14:16:07;28.60;87.70
29363;DHT22;16349;53.672;10.014;2023-06-24T14:18:34;29.40;82.90
29363;DHT22;16349;53.672;10.014;2023-06-24T14:21:03;29.90;80.80
29363;DHT22;16349;53.672;10.014;2023-06-24T14:23:31;29.90;80.70
29363;DHT22;16349;53.672;10.014;2023-06-24T14:25:58;29.90;79.60
29363;DHT22;16349;53.672;10.014;2023-06-24T14:28:26;29.90;79.00
29363;DHT22;16349;53.672;10.014;2023-06-24T14:30:53;29.60;79.20
29363;DHT22;16349;53.672;10.014;2023-06-24T14:33:20;29.40;79.40
29363;DHT22;16349;53.672;10.014;2023-06-24T14:35:47;29.80;78.10
29363;DHT22;16349;53.672;10.014;2023-06-24T14:38:15;30.10;76.50
29363;DHT22;16349;53.672;10.014;2023-06-24T14:40:42;30.60;76.90
29363;DHT22;16349;53.672;10.014;2023-06-24T14:43:09;30.70;76.70
29363;DHT22;16349;53.672;10.014;2023-06-24T14:45:36;30.20;76.40
29363;DHT22;16349;53.672;10.014;2023-06-24T14:48:03;30.20;75.60
29363;DHT22;16349;53.672;10.014;2023-06-24T14:50:30;30.40;75.80
29363;DHT22;16349;53.672;10.014;2023-06-24T14:52:57;30.90;75.90
29363;DHT22;16349;53.672;10.014;2023-06-24T14:55:25;30.80;74.20
29363;DHT22;16349;53.672;10.014;2023-06-24T14:57:52;30.60;73.50
29363;DHT22;16349;53.672;10.014;2023-06-24T15:00:19;30.10;73.70
29363;DHT22;16349;53.672;10.014;2023-06-24T15:02:46;30.00;73.50
29363;DHT22;16349;53.672;10.014;2023-06-24T15:05:14;29.80;72.70
29363;DHT22;16349;53.672;10.014;2023-06-24T15:07:41;29.20;72.80
29363;DHT22;16349;53.672;10.014;2023-06-24T15:10:08;28.90;74.30
29363;DHT22;16349;53.672;10.014;2023-06-24T15:12:36;28.50;76.40
29363;DHT22;16349;53.672;10.014;2023-06-24T15:15:05;28.20;77.00
29363;DHT22;16349;53.672;10.014;2023-06-24T15:17:32;28.40;76.60
29363;DHT22;16349;53.672;10.014;2023-06-24T15:20:01;28.00;77.20
29363;DHT22;16349;53.672;10.014;2023-06-24T15:22:28;27.80;78.00
29363;DHT22;16349;53.672;10.014;2023-06-24T15:24:54;27.50;78.20
29363;DHT22;16349;53.672;10.014;2023-06-24T15:27:21;27.50;79.80
29363;DHT22;16349;53.672;10.014;2023-06-24T15:29:49;27.70;80.20
29363;DHT22;16349;53.672;10.014;2023-06-24T15:32:16;27.70;79.40
29363;DHT22;16349;53.672;10.014;2023-06-24T15:34:43;27.60;81.40